createdAt,value
2023-01-25T00:01:35.337Z,24.50
2023-01-25T00:04:01.470Z,26.47
2023-01-25T00:06:27.575Z,28.63
2023-01-25T00:08:53.920Z,26.30
2023-01-25T00:11:20.516Z,30.87
2023-01-25T00:13:47.265Z,25.57
2023-01-25T00:16:13.439Z,27.30
2023-01-25T00:18:39.629Z,25.43
2023-01-25T00:21:12.557Z,26.07
2023-01-25T00:23:38.669Z,25.87
2023-01-25T00:26:04.772Z,25.33
2023-01-25T00:28:30.891Z,24.93
2023-01-25T00:30:59.726Z,25.77
2023-01-25T00:33:40.059Z,31.63
2023-01-25T00:36:32.819Z,30.40
2023-01-25T00:38:58.995Z,28.47
2023-01-25T00:41:25.165Z,25.10
2023-01-25T00:43:51.296Z,28.30
2023-01-25T00:46:18.412Z,26.93
2023-01-25T00:48:44.582Z,28.47
2023-01-25T00:51:10.816Z,29.63
2023-01-25T00:53:37.241Z,28.23
2023-01-25T00:56:03.770Z,30.20
2023-01-25T00:58:30.206Z,30.33
2023-01-25T01:00:56.753Z,27.57
2023-01-25T01:03:23.819Z,24.90
2023-01-25T01:05:59.247Z,27.30
2023-01-25T01:08:25.366Z,25.93
2023-01-25T01:10:51.488Z,27.83
2023-01-25T01:13:17.591Z,25.20
2023-01-25T01:15:43.721Z,27.77
2023-01-25T01:18:09.872Z,25.70
2023-01-25T01:20:36.615Z,25.77
2023-01-25T01:23:02.761Z,25.80
2023-01-25T01:25:28.909Z,28.30
2023-01-25T01:27:55.021Z,25.47
2023-01-25T01:30:21.173Z,25.53
2023-01-25T01:32:47.386Z,27.40
2023-01-25T01:35:13.835Z,26.60
2023-01-25T01:37:42.469Z,26.33
2023-01-25T01:40:13.898Z,27.03
2023-01-25T01:42:58.612Z,25.90
2023-01-25T01:45:51.589Z,28.20
2023-01-25T01:48:21.151Z,27.20
2023-01-25T01:50:51.943Z,25.87
2023-01-25T01:53:19.406Z,27.60
2023-01-25T01:55:45.581Z,28.20
2023-01-25T01:58:11.769Z,24.80
2023-01-25T02:00:39.495Z,26.97
2023-01-25T02:03:06.037Z,29.77
2023-01-25T02:05:37.581Z,33.07
2023-01-25T02:08:05.230Z,33.67
2023-01-25T02:10:32.513Z,29.57
2023-01-25T02:12:58.816Z,30.27
2023-01-25T02:15:27.790Z,28.77
2023-01-25T02:17:54.045Z,28.13
2023-01-25T02:20:27.515Z,25.63
2023-01-25T02:22:58.823Z,27.23
2023-01-25T02:25:26.165Z,27.47
2023-01-25T02:27:54.828Z,31.57
2023-01-25T02:30:21.530Z,27.10
2023-01-25T02:32:47.660Z,28.37
2023-01-25T02:35:18.824Z,29.73
2023-01-25T02:37:45.141Z,27.83
2023-01-25T02:40:11.909Z,33.37
2023-01-25T02:42:41.526Z,30.67
2023-01-25T02:45:09.950Z,28.00
2023-01-25T02:47:36.113Z,32.07
2023-01-25T02:50:02.401Z,30.13
2023-01-25T02:52:28.765Z,28.93
2023-01-25T02:54:54.905Z,30.33
2023-01-25T02:57:23.137Z,29.27
2023-01-25T02:59:49.949Z,34.03
2023-01-25T03:02:16.224Z,28.17
2023-01-25T03:04:42.365Z,28.73
2023-01-25T03:07:08.505Z,30.70
2023-01-25T03:09:36.120Z,31.80
2023-01-25T03:12:02.201Z,33.30
2023-01-25T03:14:28.308Z,32.00
2023-01-25T03:16:55.077Z,33.13
2023-01-25T03:19:21.197Z,34.33
2023-01-25T03:21:47.305Z,33.80
2023-01-25T03:24:13.500Z,31.60
2023-01-25T03:26:54.293Z,32.03
2023-01-25T03:29:20.421Z,35.10
2023-01-25T03:31:46.657Z,32.77
2023-01-25T03:34:13.417Z,32.13
2023-01-25T03:36:39.570Z,31.93
2023-01-25T03:39:05.701Z,34.00
2023-01-25T03:41:31.910Z,28.70
2023-01-25T03:43:58.028Z,29.20
2023-01-25T03:46:25.414Z,30.73
2023-01-25T03:48:51.716Z,25.37
2023-01-25T03:51:18.473Z,26.60
2023-01-25T03:53:44.753Z,31.80
2023-01-25T03:56:16.745Z,33.53
2023-01-25T03:58:42.862Z,31.90
2023-01-25T04:01:09.180Z,36.60
2023-01-25T04:03:35.391Z,30.73
2023-01-25T04:06:01.747Z,36.03
2023-01-25T04:08:28.764Z,29.27
2023-01-25T04:10:55.945Z,32.47
2023-01-25T04:13:23.559Z,39.10
2023-01-25T04:15:49.709Z,34.80
2023-01-25T04:18:16.055Z,33.80
2023-01-25T04:20:43.151Z,37.87
2023-01-25T04:23:09.933Z,32.43
2023-01-25T04:25:36.935Z,31.40
2023-01-25T04:28:03.754Z,31.57
2023-01-25T04:30:30.043Z,39.63
2023-01-25T04:32:56.161Z,43.23
2023-01-25T04:35:22.256Z,40.10
2023-01-25T04:37:53.126Z,34.50
2023-01-25T04:40:19.259Z,34.90
2023-01-25T04:42:46.000Z,36.73
2023-01-25T04:45:12.383Z,38.77
2023-01-25T04:47:38.568Z,39.03
2023-01-25T04:50:06.501Z,35.07
2023-01-25T04:52:33.495Z,33.97
2023-01-25T04:54:59.624Z,38.57
2023-01-25T04:57:25.781Z,38.57
2023-01-25T04:59:52.538Z,42.50
2023-01-25T05:02:18.699Z,47.13
2023-01-25T05:04:44.947Z,37.33
2023-01-25T05:07:11.066Z,39.63
2023-01-25T05:09:37.229Z,40.97
2023-01-25T05:12:05.017Z,45.20
2023-01-25T05:14:31.233Z,43.37
2023-01-25T05:16:58.069Z,42.07
2023-01-25T05:19:24.286Z,52.00
2023-01-25T05:21:59.268Z,47.77
2023-01-25T05:24:25.572Z,55.77
2023-01-25T05:27:00.609Z,50.37
2023-01-25T05:29:27.265Z,50.67
2023-01-25T05:31:53.602Z,52.37
2023-01-25T05:34:20.410Z,50.63
2023-01-25T05:36:46.531Z,56.00
2023-01-25T05:39:12.678Z,51.73
2023-01-25T05:41:38.810Z,47.20
2023-01-25T05:44:04.949Z,46.63
2023-01-25T05:46:31.335Z,49.97
2023-01-25T05:48:57.441Z,56.23
2023-01-25T05:51:24.338Z,52.97
2023-01-25T05:53:50.679Z,51.13
2023-01-25T05:56:16.781Z,59.03
2023-01-25T05:58:43.015Z,53.43
2023-01-25T06:01:09.206Z,53.87
2023-01-25T06:03:35.415Z,55.90
2023-01-25T06:06:02.181Z,49.33
2023-01-25T06:08:29.649Z,52.37
2023-01-25T06:10:55.895Z,52.23
2023-01-25T06:13:22.503Z,53.77
2023-01-25T06:15:51.863Z,50.27
2023-01-25T06:18:18.104Z,52.90
2023-01-25T06:20:44.363Z,53.33
2023-01-25T06:23:11.551Z,46.70
2023-01-25T06:25:38.306Z,46.47
2023-01-25T06:28:04.643Z,49.83
2023-01-25T06:30:31.004Z,62.37
2023-01-25T06:32:57.646Z,55.93
2023-01-25T06:35:23.813Z,62.10
2023-01-25T06:37:49.932Z,58.37
2023-01-25T06:40:16.629Z,61.90
2023-01-25T06:42:44.479Z,60.80
2023-01-25T06:45:11.681Z,60.53
2023-01-25T06:47:38.696Z,62.17
2023-01-25T06:50:05.703Z,60.17
2023-01-25T06:52:35.537Z,60.23
2023-01-25T06:55:01.712Z,50.97
2023-01-25T06:57:28.595Z,50.93
2023-01-25T06:59:55.570Z,53.87
2023-01-25T07:02:22.419Z,52.73
2023-01-25T07:04:48.585Z,51.37
2023-01-25T07:07:14.729Z,56.13
2023-01-25T07:09:40.854Z,62.23
2023-01-25T07:12:07.104Z,54.33
2023-01-25T07:14:33.271Z,56.27
2023-01-25T07:17:02.783Z,56.27
2023-01-25T07:19:29.138Z,56.03
2023-01-25T07:21:55.318Z,55.53
2023-01-25T07:24:26.151Z,65.50
2023-01-25T07:26:52.321Z,61.03
2023-01-25T07:29:18.413Z,55.97
2023-01-25T07:31:44.606Z,48.47
2023-01-25T07:34:12.566Z,57.37
2023-01-25T07:36:39.205Z,54.60
2023-01-25T07:39:05.345Z,53.73
2023-01-25T07:41:31.958Z,60.13
2023-01-25T07:43:58.112Z,64.93
2023-01-25T07:46:24.247Z,63.70
2023-01-25T07:48:51.849Z,64.50
2023-01-25T07:51:23.100Z,64.13
2023-01-25T07:53:50.771Z,57.87
2023-01-25T07:56:17.895Z,58.17
2023-01-25T07:58:44.058Z,61.93
2023-01-25T08:01:11.703Z,64.50
2023-01-25T08:03:37.948Z,61.03
2023-01-25T08:06:04.740Z,65.20
2023-01-25T08:08:33.705Z,59.20
2023-01-25T08:11:00.294Z,59.80
2023-01-25T08:13:26.414Z,58.47
2023-01-25T08:15:53.295Z,58.53
2023-01-25T08:18:19.399Z,65.47
2023-01-25T08:20:45.500Z,62.47
2023-01-25T08:23:11.649Z,60.80
2023-01-25T08:25:38.711Z,64.67
2023-01-25T08:28:05.287Z,57.50
2023-01-25T08:30:31.405Z,58.87
2023-01-25T08:32:57.514Z,57.27
2023-01-25T08:35:23.630Z,60.93
2023-01-25T08:37:49.751Z,59.57
2023-01-25T08:40:16.335Z,57.73
2023-01-25T08:42:43.082Z,66.10
2023-01-25T08:45:10.418Z,61.87
2023-01-25T08:47:36.780Z,63.10
2023-01-25T08:50:03.576Z,65.20
2023-01-25T08:52:29.702Z,59.00
2023-01-25T08:54:56.026Z,59.60
2023-01-25T08:57:22.154Z,64.60
2023-01-25T08:59:48.895Z,66.37
2023-01-25T09:02:15.016Z,66.23
2023-01-25T09:04:41.119Z,78.00
2023-01-25T09:07:07.230Z,62.13
2023-01-25T09:09:33.364Z,64.70
2023-01-25T09:11:59.457Z,64.93
2023-01-25T09:14:25.928Z,65.87
2023-01-25T09:16:52.645Z,65.93
2023-01-25T09:19:18.808Z,64.87
2023-01-25T09:21:45.391Z,65.77
2023-01-25T09:24:11.628Z,65.13
2023-01-25T09:26:39.386Z,66.80
2023-01-25T09:29:06.955Z,65.87
2023-01-25T09:31:33.208Z,63.97
2023-01-25T09:34:00.314Z,61.73
2023-01-25T09:36:26.468Z,65.50
2023-01-25T09:38:52.957Z,68.30
2023-01-25T09:41:36.043Z,67.63
2023-01-25T09:44:15.464Z,64.13
2023-01-25T09:46:43.440Z,73.60
2023-01-25T09:49:24.887Z,63.70
2023-01-25T09:52:02.844Z,65.27
2023-01-25T09:54:31.711Z,66.97
2023-01-25T09:56:58.687Z,66.87
2023-01-25T09:59:29.770Z,61.43
2023-01-25T10:01:58.380Z,60.93
2023-01-25T10:04:26.854Z,70.73
2023-01-25T10:07:01.327Z,79.97
2023-01-25T10:09:34.469Z,62.87
2023-01-25T10:12:11.890Z,66.77
2023-01-25T10:14:38.044Z,69.10
2023-01-25T10:17:08.199Z,71.27
2023-01-25T10:19:46.060Z,66.90
2023-01-25T10:22:15.151Z,69.07
2023-01-25T10:24:51.908Z,67.80
2023-01-25T10:27:24.860Z,63.30
2023-01-25T10:29:52.531Z,60.90
2023-01-25T10:32:20.251Z,67.73
2023-01-25T10:34:56.251Z,64.37
2023-01-25T10:37:26.468Z,62.37
2023-01-25T10:39:57.282Z,55.90
2023-01-25T10:42:26.204Z,61.87
2023-01-25T10:44:52.445Z,66.83
2023-01-25T10:47:23.145Z,59.80
2023-01-25T10:49:51.028Z,63.60
2023-01-25T10:52:18.692Z,61.00
2023-01-25T10:54:49.435Z,63.00
2023-01-25T10:57:18.874Z,61.53
2023-01-25T10:59:46.575Z,60.97
2023-01-25T11:02:40.411Z,60.63
2023-01-25T11:05:25.912Z,57.83
2023-01-25T11:07:52.345Z,62.40
2023-01-25T11:10:29.944Z,59.20
2023-01-25T11:13:18.836Z,61.60
2023-01-25T11:15:46.450Z,57.87
2023-01-25T11:18:13.783Z,58.27
2023-01-25T11:20:40.531Z,63.27
2023-01-25T11:23:21.258Z,67.70
2023-01-25T11:25:47.421Z,66.23
2023-01-25T11:28:19.234Z,64.43
2023-01-25T11:30:46.041Z,62.07
2023-01-25T11:33:13.822Z,62.90
2023-01-25T11:35:52.444Z,59.73
2023-01-25T11:38:21.813Z,60.77
2023-01-25T11:40:50.248Z,64.90
2023-01-25T11:43:25.502Z,73.87
2023-01-25T11:46:01.962Z,78.40
2023-01-25T11:48:42.712Z,66.97
2023-01-25T11:51:13.213Z,56.47
2023-01-25T11:54:04.518Z,64.10
2023-01-25T11:56:39.225Z,65.27
2023-01-25T11:59:17.940Z,66.77
2023-01-25T12:01:57.756Z,60.43
2023-01-25T12:04:50.227Z,62.27
2023-01-25T12:07:22.114Z,59.87
2023-01-25T12:10:04.295Z,65.17
2023-01-25T12:12:39.841Z,74.10
2023-01-25T12:15:16.789Z,67.57
2023-01-25T12:17:55.192Z,54.70
2023-01-25T12:20:31.315Z,63.07
2023-01-25T12:23:25.465Z,62.80
2023-01-25T12:26:00.844Z,64.33
2023-01-25T12:28:28.963Z,63.20
2023-01-25T12:30:57.732Z,60.57
2023-01-25T12:33:28.440Z,57.80
2023-01-25T12:35:59.448Z,57.77
2023-01-25T12:38:29.745Z,60.30
2023-01-25T12:40:59.137Z,59.23
2023-01-25T12:43:28.573Z,64.97
2023-01-25T12:45:56.309Z,63.63
2023-01-25T12:48:26.620Z,64.97
2023-01-25T12:50:55.435Z,66.13
2023-01-25T12:53:24.972Z,55.67
2023-01-25T12:55:52.246Z,59.27
2023-01-25T12:58:37.124Z,54.30
2023-01-25T13:01:11.187Z,57.70
2023-01-25T13:03:47.351Z,61.63
2023-01-25T13:06:18.830Z,65.50
2023-01-25T13:08:52.989Z,53.80
2023-01-25T13:11:22.214Z,63.20
2023-01-25T13:13:48.629Z,60.10
2023-01-25T13:16:34.882Z,57.33
2023-01-25T13:19:01.060Z,55.63
2023-01-25T13:21:44.234Z,53.73
2023-01-25T13:24:16.436Z,61.57
2023-01-25T13:26:57.160Z,64.60
2023-01-25T13:29:56.870Z,59.73
2023-01-25T13:33:06.439Z,66.30
2023-01-25T13:35:40.924Z,59.20
2023-01-25T13:38:28.889Z,61.73
2023-01-25T13:41:12.405Z,71.57
2023-01-25T13:43:41.399Z,60.10
2023-01-25T13:46:10.068Z,74.20
2023-01-25T13:48:48.254Z,62.47
2023-01-25T13:51:16.825Z,61.43
2023-01-25T13:53:54.757Z,69.83
2023-01-25T13:56:32.241Z,68.77
2023-01-25T13:58:59.398Z,66.63
2023-01-25T14:01:26.546Z,63.23
2023-01-25T14:03:55.805Z,70.60
2023-01-25T14:06:24.315Z,67.70
2023-01-25T14:08:51.176Z,62.90
2023-01-25T14:11:19.049Z,63.57
2023-01-25T14:13:55.625Z,72.70
2023-01-25T14:16:22.602Z,66.20
2023-01-25T14:18:48.865Z,68.80
2023-01-25T14:21:16.665Z,73.53
2023-01-25T14:23:43.051Z,64.23
2023-01-25T14:26:17.170Z,71.77
2023-01-25T14:28:51.246Z,70.50
2023-01-25T14:31:28.353Z,70.33
2023-01-25T14:33:57.693Z,73.07
2023-01-25T14:36:26.851Z,72.47
2023-01-25T14:38:53.346Z,67.53
2023-01-25T14:41:21.042Z,67.70
2023-01-25T14:43:48.912Z,69.63
2023-01-25T14:46:27.643Z,74.20
2023-01-25T14:49:15.071Z,77.33
2023-01-25T14:51:43.665Z,79.10
2023-01-25T14:54:16.180Z,75.17
2023-01-25T14:56:43.265Z,75.60
2023-01-25T14:59:21.949Z,65.73
2023-01-25T15:01:50.536Z,63.43
2023-01-25T15:04:16.675Z,61.50
2023-01-25T15:06:45.395Z,71.13
2023-01-25T15:09:30.283Z,68.90
2023-01-25T15:11:59.367Z,77.47
2023-01-25T15:14:26.629Z,73.57
2023-01-25T15:16:55.060Z,68.87
2023-01-25T15:19:28.237Z,63.13
2023-01-25T15:21:55.834Z,72.40
2023-01-25T15:24:22.799Z,71.50
2023-01-25T15:26:50.972Z,69.07
2023-01-25T15:29:20.100Z,71.23
2023-01-25T15:31:46.848Z,60.50
2023-01-25T15:34:15.019Z,69.23
2023-01-25T15:36:41.179Z,78.67
2023-01-25T15:39:11.483Z,74.87
2023-01-25T15:41:37.628Z,83.70
2023-01-25T15:44:03.741Z,74.50
2023-01-25T15:46:31.005Z,73.13
2023-01-25T15:48:57.142Z,71.77
2023-01-25T15:51:23.955Z,68.50
2023-01-25T15:53:50.090Z,70.20
2023-01-25T15:56:17.917Z,72.13
2023-01-25T15:58:45.809Z,70.40
2023-01-25T16:01:12.098Z,70.67
2023-01-25T16:03:40.683Z,65.17
2023-01-25T16:06:30.258Z,73.93
2023-01-25T16:08:57.995Z,68.83
2023-01-25T16:11:24.258Z,72.93
2023-01-25T16:13:50.493Z,65.97
2023-01-25T16:16:17.993Z,65.47
2023-01-25T16:18:44.238Z,58.07
2023-01-25T16:21:12.413Z,62.30
2023-01-25T16:23:39.656Z,62.70
2023-01-25T16:26:13.274Z,63.57
2023-01-25T16:28:39.382Z,54.10
2023-01-25T16:31:05.880Z,60.53
2023-01-25T16:33:32.018Z,63.87
2023-01-25T16:36:04.050Z,57.50
2023-01-25T16:38:30.172Z,65.57
2023-01-25T16:40:56.890Z,68.43
2023-01-25T16:43:25.218Z,60.50
2023-01-25T16:45:55.937Z,69.40
2023-01-25T16:48:22.074Z,65.13
2023-01-25T16:50:49.298Z,68.40
2023-01-25T16:53:15.470Z,64.30
2023-01-25T16:55:41.651Z,57.80
2023-01-25T16:58:08.438Z,54.53
2023-01-25T17:00:34.567Z,62.43
2023-01-25T17:03:00.767Z,61.13
2023-01-25T17:05:33.905Z,55.23
2023-01-25T17:08:00.037Z,57.47
2023-01-25T17:10:26.159Z,55.87
2023-01-25T17:12:52.244Z,60.20
2023-01-25T17:15:20.155Z,61.27
2023-01-25T17:17:46.327Z,72.63
2023-01-25T17:20:12.656Z,63.10
2023-01-25T17:22:39.720Z,59.87
2023-01-25T17:25:06.363Z,61.77
2023-01-25T17:27:32.466Z,65.10
2023-01-25T17:29:58.594Z,59.87
2023-01-25T17:32:25.345Z,68.17
2023-01-25T17:34:52.912Z,63.13
2023-01-25T17:37:19.034Z,62.13
2023-01-25T17:39:45.346Z,63.40
2023-01-25T17:42:13.709Z,55.40
2023-01-25T17:44:39.826Z,61.17
2023-01-25T17:47:05.939Z,56.70
2023-01-25T17:49:32.661Z,55.30
2023-01-25T17:51:58.745Z,57.30
2023-01-25T17:54:24.871Z,55.33
2023-01-25T17:56:50.977Z,48.93
2023-01-25T17:59:17.137Z,64.37
2023-01-25T18:01:43.312Z,67.03
2023-01-25T18:04:10.087Z,54.80
2023-01-25T18:06:36.870Z,57.07
2023-01-25T18:09:05.231Z,51.13
2023-01-25T18:11:32.835Z,46.10
2023-01-25T18:14:01.338Z,51.77
2023-01-25T18:16:29.805Z,47.67
2023-01-25T18:18:58.356Z,41.67
2023-01-25T18:21:26.368Z,42.23
2023-01-25T18:23:55.242Z,45.37
2023-01-25T18:26:23.164Z,51.37
2023-01-25T18:28:51.829Z,53.40
2023-01-25T18:31:18.364Z,49.23
2023-01-25T18:33:44.542Z,54.53
2023-01-25T18:36:13.440Z,48.83
2023-01-25T18:38:39.737Z,44.17
2023-01-25T18:41:07.388Z,50.80
2023-01-25T18:43:33.653Z,54.57
2023-01-25T18:45:59.905Z,55.80
2023-01-25T18:48:30.035Z,52.60
2023-01-25T18:50:57.277Z,54.27
2023-01-25T18:53:25.006Z,51.30
2023-01-25T18:55:58.818Z,50.07
2023-01-25T18:58:25.600Z,49.33
2023-01-25T19:01:00.481Z,54.43
2023-01-25T19:03:26.600Z,56.53
2023-01-25T19:05:52.716Z,55.70
2023-01-25T19:08:19.207Z,58.67
2023-01-25T19:10:45.337Z,62.67
2023-01-25T19:13:11.430Z,59.33
2023-01-25T19:15:38.171Z,61.70
2023-01-25T19:18:04.358Z,67.33
2023-01-25T19:20:30.466Z,73.83
2023-01-25T19:22:56.564Z,69.93
2023-01-25T19:25:23.415Z,67.63
2023-01-25T19:27:49.525Z,72.37
2023-01-25T19:30:15.733Z,70.57
2023-01-25T19:32:42.496Z,68.67
2023-01-25T19:35:09.437Z,70.40
2023-01-25T19:37:35.812Z,72.40
2023-01-25T19:40:01.959Z,64.63
2023-01-25T19:42:28.118Z,65.77
2023-01-25T19:44:54.594Z,68.73
2023-01-25T19:47:20.763Z,66.17
2023-01-25T19:49:47.512Z,73.00
2023-01-25T19:52:13.625Z,69.10
2023-01-25T19:54:39.742Z,71.40
2023-01-25T19:57:05.845Z,75.07
2023-01-25T19:59:32.212Z,70.33
2023-01-25T20:01:58.410Z,70.37
2023-01-25T20:04:24.624Z,77.57
2023-01-25T20:06:51.585Z,64.03
2023-01-25T20:09:19.252Z,63.40
2023-01-25T20:11:46.442Z,62.83
2023-01-25T20:14:13.098Z,68.47
2023-01-25T20:16:39.508Z,61.93
2023-01-25T20:19:06.089Z,57.93
2023-01-25T20:21:33.007Z,59.13
2023-01-25T20:24:03.585Z,60.23
2023-01-25T20:26:31.865Z,55.47
2023-01-25T20:28:58.685Z,55.53
2023-01-25T20:31:26.394Z,57.00
2023-01-25T20:33:54.148Z,60.60
2023-01-25T20:36:20.624Z,56.90
2023-01-25T20:38:46.900Z,55.60
2023-01-25T20:41:15.453Z,53.67
2023-01-25T20:43:45.161Z,61.17
2023-01-25T20:46:11.285Z,59.90
2023-01-25T20:48:37.394Z,60.53
2023-01-25T20:51:04.975Z,59.13
2023-01-25T20:53:31.414Z,61.83
2023-01-25T20:55:57.839Z,61.17
2023-01-25T20:58:24.791Z,63.33
2023-01-25T21:00:50.907Z,54.47
2023-01-25T21:03:17.066Z,58.53
2023-01-25T21:05:48.762Z,57.00
2023-01-25T21:08:14.889Z,58.63
2023-01-25T21:10:46.990Z,53.60
2023-01-25T21:13:13.116Z,59.67
2023-01-25T21:15:39.908Z,64.70
2023-01-25T21:18:06.007Z,62.67
2023-01-25T21:20:32.172Z,63.17
2023-01-25T21:22:58.265Z,65.80
2023-01-25T21:25:24.374Z,65.33
2023-01-25T21:27:52.576Z,55.43
2023-01-25T21:30:18.734Z,54.80
2023-01-25T21:32:45.486Z,56.13
2023-01-25T21:35:11.902Z,54.40
2023-01-25T21:37:38.270Z,52.17
2023-01-25T21:40:05.251Z,58.40
2023-01-25T21:42:32.442Z,63.73
2023-01-25T21:45:16.940Z,62.57
2023-01-25T21:47:43.041Z,60.40
2023-01-25T21:50:28.479Z,61.63
2023-01-25T21:52:54.615Z,64.83
2023-01-25T21:55:20.703Z,68.00
2023-01-25T21:57:47.393Z,60.47
2023-01-25T22:00:15.456Z,68.53
2023-01-25T22:02:42.237Z,61.90
2023-01-25T22:05:09.559Z,71.17
2023-01-25T22:07:35.684Z,75.13
2023-01-25T22:10:01.858Z,72.50
2023-01-25T22:12:28.091Z,72.43
2023-01-25T22:14:54.374Z,68.47
2023-01-25T22:17:21.760Z,82.47
2023-01-25T22:19:47.903Z,76.10
2023-01-25T22:22:14.655Z,73.73
2023-01-25T22:24:40.781Z,83.00
2023-01-25T22:27:26.984Z,74.43
2023-01-25T22:29:53.087Z,86.17
2023-01-25T22:32:19.186Z,77.03
2023-01-25T22:34:45.310Z,93.20
2023-01-25T22:37:11.546Z,81.40
2023-01-25T22:39:38.417Z,83.60
2023-01-25T22:42:04.657Z,78.37
2023-01-25T22:44:30.757Z,86.40
2023-01-25T22:46:56.872Z,83.57
2023-01-25T22:49:22.980Z,76.50
2023-01-25T22:51:49.157Z,81.67
2023-01-25T22:54:15.263Z,80.40
2023-01-25T22:56:42.124Z,76.13
2023-01-25T22:59:10.733Z,85.30
2023-01-25T23:01:36.877Z,89.67
2023-01-25T23:04:03.167Z,90.87
2023-01-25T23:06:33.209Z,93.13
2023-01-25T23:09:00.866Z,95.50
2023-01-25T23:11:31.289Z,81.83
2023-01-25T23:14:16.798Z,81.20
2023-01-25T23:16:43.567Z,92.10
2023-01-25T23:19:09.710Z,88.87
2023-01-25T23:21:36.211Z,96.17
2023-01-25T23:24:03.413Z,104.97
2023-01-25T23:26:36.567Z,107.37
2023-01-25T23:29:05.564Z,97.77
2023-01-25T23:31:31.916Z,110.23
2023-01-25T23:34:00.455Z,97.93
2023-01-25T23:36:27.803Z,100.83
2023-01-25T23:38:54.745Z,107.40
2023-01-25T23:41:22.176Z,105.30
2023-01-25T23:43:49.387Z,104.33
2023-01-25T23:46:16.590Z,97.03
2023-01-25T23:48:43.662Z,104.73
2023-01-25T23:51:10.801Z,111.23
2023-01-25T23:53:37.657Z,110.93
2023-01-25T23:56:05.611Z,106.67
2023-01-25T23:58:33.567Z,106.23
